Time;durP1;ratioP1;P1;durP2;ratioP2;P2;SDS_P1;SDS_P2;PMS_P1;PMS_P2;Temp;Humidity;BMP_temperature;BMP_pressure;BME280_temperature;BME280_humidity;BME280_pressure;Samples;Min_cycle;Max_cycle;Signal;HPM_P1;HPM_P2
2023/11/15 00:04:26;;;;;;;38.47;23.80;;;;;;;;;;10500335;28;20459;-83
2023/11/15 00:09:31;;;;;;;39.77;24.53;;;;;;;;;;10502659;28;20414;-83
2023/11/15 00:14:33;;;;;;;36.53;22.87;;;;;;;;;;10504874;28;20417;-84
2023/11/15 00:19:36;;;;;;;37.70;22.85;;;;;;;;;;10504522;28;20467;-84
2023/11/15 00:24:40;;;;;;;38.55;22.75;;;;;;;;;;10519084;28;20408;-86
2023/11/15 00:29:43;;;;;;;35.90;23.23;;;;;;;;;;10506139;28;20404;-83
2023/11/15 00:34:45;;;;;;;40.97;24.35;;;;;;;;;;10510150;28;20408;-82
2023/11/15 00:39:49;;;;;;;37.15;22.35;;;;;;;;;;10504887;28;20388;-78
2023/11/15 00:44:51;;;;;;;41.35;23.40;;;;;;;;;;10510556;28;20406;-83
2023/11/15 00:49:54;;;;;;;38.55;23.17;;;;;;;;;;10503070;28;20429;-83
2023/11/15 00:54:57;;;;;;;38.63;24.17;;;;;;;;;;10512999;28;20394;-83
2023/11/15 01:00:00;;;;;;;38.77;24.73;;;;;;;;;;10505431;28;20550;-83
2023/11/15 01:05:03;;;;;;;42.33;25.63;;;;;;;;;;10506994;28;20398;-83
2023/11/15 01:10:09;;;;;;;38.50;23.42;;;;;;;;;;10516937;28;20400;-83
2023/11/15 01:15:13;;;;;;;38.17;23.17;;;;;;;;;;10501463;28;20401;-83
2023/11/15 01:20:16;;;;;;;39.30;23.08;;;;;;;;;;10504521;28;20993;-83
2023/11/15 01:25:21;;;;;;;36.95;22.65;;;;;;;;;;10515894;28;20434;-83
2023/11/15 01:30:23;;;;;;;39.55;23.70;;;;;;;;;;10502525;28;20394;-83
2023/11/15 01:35:26;;;;;;;40.15;24.48;;;;;;;;;;10500768;28;20413;-84
2023/11/15 01:40:34;;;;;;;36.10;24.00;;;;;;;;;;10502257;28;20426;-83
2023/11/15 01:45:37;;;;;;;38.08;23.90;;;;;;;;;;10502716;28;20404;-83
2023/11/15 01:50:39;;;;;;;37.47;22.88;;;;;;;;;;10500697;28;20951;-82
2023/11/15 01:55:45;;;;;;;38.65;24.02;;;;;;;;;;10502305;28;20418;-83
2023/11/15 02:00:47;;;;;;;41.78;25.10;;;;;;;;;;10505293;28;20457;-82
2023/11/15 02:05:53;;;;;;;41.77;24.57;;;;;;;;;;10505482;28;20414;-83
2023/11/15 02:10:57;;;;;;;43.15;25.15;;;;;;;;;;10513454;28;20402;-83
2023/11/15 02:16:00;;;;;;;39.72;24.45;;;;;;;;;;10508475;28;20440;-83
2023/11/15 02:21:03;;;;;;;39.17;24.02;;;;;;;;;;10503590;28;20905;-83
2023/11/15 02:26:07;;;;;;;36.80;23.20;;;;;;;;;;10507159;28;20452;-83
2023/11/15 02:31:10;;;;;;;40.33;23.92;;;;;;;;;;10501212;28;20461;-83
2023/11/15 02:36:12;;;;;;;39.40;24.43;;;;;;;;;;10504751;28;20480;-83
2023/11/15 02:41:16;;;;;;;41.42;24.83;;;;;;;;;;10499664;28;20489;-82
2023/11/15 02:46:21;;;;;;;36.63;23.87;;;;;;;;;;10503291;28;20576;-83
2023/11/15 02:51:23;;;;;;;36.83;23.23;;;;;;;;;;10505585;28;20406;-83
2023/11/15 02:56:27;;;;;;;37.80;23.80;;;;;;;;;;10510694;28;20405;-83
2023/11/15 03:01:29;;;;;;;34.10;21.67;;;;;;;;;;10510197;28;20422;-82
2023/11/15 03:06:32;;;;;;;36.10;22.92;;;;;;;;;;10510384;28;20890;-84
2023/11/15 03:11:36;;;;;;;34.33;22.27;;;;;;;;;;10509687;28;20441;-83
2023/11/15 03:16:39;;;;;;;34.87;21.50;;;;;;;;;;10522186;28;20499;-83
2023/11/15 03:21:42;;;;;;;39.50;23.40;;;;;;;;;;10515445;28;20421;-83
2023/11/15 03:26:46;;;;;;;37.30;22.67;;;;;;;;;;10517266;28;20926;-83
2023/11/15 03:31:48;;;;;;;35.88;22.23;;;;;;;;;;10510718;28;20413;-84
2023/11/15 03:36:51;;;;;;;35.45;22.80;;;;;;;;;;10511160;28;20417;-83
2023/11/15 03:41:54;;;;;;;34.38;22.02;;;;;;;;;;10512289;28;20425;-83
2023/11/15 03:46:57;;;;;;;33.83;21.85;;;;;;;;;;10502524;28;20459;-83
2023/11/15 03:51:59;;;;;;;37.40;24.70;;;;;;;;;;10505706;28;20402;-83
2023/11/15 03:57:06;;;;;;;41.35;24.70;;;;;;;;;;10505255;28;20407;-83
2023/11/15 04:02:08;;;;;;;38.17;23.03;;;;;;;;;;10503697;28;20418;-83
2023/11/15 04:07:10;;;;;;;35.25;21.88;;;;;;;;;;10512222;28;20402;-82
2023/11/15 04:12:14;;;;;;;34.65;22.75;;;;;;;;;;10521823;28;20944;-83
2023/11/15 04:17:17;;;;;;;36.63;21.55;;;;;;;;;;10509594;28;20459;-83
2023/11/15 04:22:20;;;;;;;37.45;22.38;;;;;;;;;;10507810;28;20518;-83
2023/11/15 04:27:23;;;;;;;36.23;21.90;;;;;;;;;;10505417;28;20430;-82
2023/11/15 04:32:26;;;;;;;36.30;21.67;;;;;;;;;;10505051;28;20471;-82
2023/11/15 04:37:29;;;;;;;35.83;22.17;;;;;;;;;;10506546;28;20469;-83
2023/11/15 04:42:33;;;;;;;34.85;21.80;;;;;;;;;;10504818;28;20456;-83
2023/11/15 04:47:36;;;;;;;36.03;22.05;;;;;;;;;;10502613;28;20463;-82
2023/11/15 04:52:38;;;;;;;35.37;21.87;;;;;;;;;;10505543;28;20410;-82
2023/11/15 04:57:42;;;;;;;36.22;21.45;;;;;;;;;;10503342;28;20409;-82
2023/11/15 05:02:44;;;;;;;33.60;20.73;;;;;;;;;;10505975;28;20418;-83
2023/11/15 05:07:47;;;;;;;36.10;22.40;;;;;;;;;;10506721;28;20428;-82
2023/11/15 05:12:51;;;;;;;36.28;22.25;;;;;;;;;;10506613;28;20873;-82
2023/11/15 05:17:53;;;;;;;39.87;22.60;;;;;;;;;;10505399;28;20921;-83
2023/11/15 05:22:55;;;;;;;35.72;21.08;;;;;;;;;;10519369;28;20424;-82
2023/11/15 05:27:59;;;;;;;35.35;20.77;;;;;;;;;;10500425;28;20402;-82
2023/11/15 05:33:02;;;;;;;31.65;19.65;;;;;;;;;;10502854;28;20402;-82
2023/11/15 05:38:07;;;;;;;32.47;18.83;;;;;;;;;;10499863;28;20447;-83
2023/11/15 05:43:11;;;;;;;31.05;18.77;;;;;;;;;;10502211;28;20546;-83
2023/11/15 05:48:13;;;;;;;23.98;15.48;;;;;;;;;;10513833;28;20400;-82
2023/11/15 05:53:16;;;;;;;26.50;17.30;;;;;;;;;;10504087;28;20397;-82
2023/11/15 05:58:19;;;;;;;27.42;17.77;;;;;;;;;;10499166;28;20471;-83
2023/11/15 06:03:22;;;;;;;25.83;15.95;;;;;;;;;;10500069;28;20560;-82
2023/11/15 06:08:25;;;;;;;28.13;16.57;;;;;;;;;;10508256;28;20399;-82
2023/11/15 06:13:28;;;;;;;27.73;17.35;;;;;;;;;;10504438;28;20467;-82
2023/11/15 06:18:31;;;;;;;27.50;16.73;;;;;;;;;;10503255;28;20461;-82
2023/11/15 06:23:35;;;;;;;28.67;16.00;;;;;;;;;;10503147;28;20449;-82
2023/11/15 06:28:40;;;;;;;25.85;16.48;;;;;;;;;;10518545;28;20398;-84
2023/11/15 06:33:43;;;;;;;27.60;17.20;;;;;;;;;;10515118;28;20461;-82
2023/11/15 06:38:45;;;;;;;30.33;17.52;;;;;;;;;;10512840;28;20410;-84
2023/11/15 06:43:49;;;;;;;31.13;17.98;;;;;;;;;;10516945;28;20420;-85
2023/11/15 06:48:51;;;;;;;28.55;18.50;;;;;;;;;;10508108;28;20408;-84
2023/11/15 06:53:54;;;;;;;29.67;17.42;;;;;;;;;;10516943;28;20471;-82
2023/11/15 06:58:57;;;;;;;29.30;17.37;;;;;;;;;;10506004;28;20782;-83
2023/11/15 07:04:00;;;;;;;28.17;17.17;;;;;;;;;;10511267;28;20453;-83
2023/11/15 07:09:02;;;;;;;27.80;16.23;;;;;;;;;;10520497;28;20787;-83
2023/11/15 07:14:10;;;;;;;26.52;16.40;;;;;;;;;;10504934;28;20396;-84
2023/11/15 07:19:12;;;;;;;25.88;15.75;;;;;;;;;;10503566;28;20742;-83
2023/11/15 07:24:16;;;;;;;28.93;17.07;;;;;;;;;;10506954;28;20422;-83
2023/11/15 07:29:20;;;;;;;25.45;16.45;;;;;;;;;;10519775;28;20410;-83
2023/11/15 07:34:23;;;;;;;24.30;15.03;;;;;;;;;;10505225;28;20661;-83
2023/11/15 07:39:25;;;;;;;29.13;15.97;;;;;;;;;;10507197;28;20773;-83
2023/11/15 07:44:30;;;;;;;26.58;16.13;;;;;;;;;;10506582;28;20425;-83
2023/11/15 07:49:32;;;;;;;27.83;16.95;;;;;;;;;;10506193;28;20403;-84
2023/11/15 07:54:34;;;;;;;28.10;16.48;;;;;;;;;;10524713;28;20413;-85
2023/11/15 07:59:38;;;;;;;27.45;16.38;;;;;;;;;;10532009;28;20398;-85
2023/11/15 08:04:40;;;;;;;31.13;19.33;;;;;;;;;;10513560;28;20430;-85
2023/11/15 08:09:43;;;;;;;26.42;17.38;;;;;;;;;;10523654;28;20430;-85
2023/11/15 08:14:47;;;;;;;29.33;16.97;;;;;;;;;;10526430;28;20405;-85
2023/11/15 08:19:49;;;;;;;28.02;17.40;;;;;;;;;;10517524;28;20495;-85
2023/11/15 08:24:52;;;;;;;25.92;16.40;;;;;;;;;;10514901;28;20451;-84
2023/11/15 08:29:56;;;;;;;24.57;15.77;;;;;;;;;;10518183;28;20487;-85
2023/11/15 08:34:58;;;;;;;25.25;16.95;;;;;;;;;;10510868;28;20412;-84
2023/11/15 08:40:01;;;;;;;28.63;16.75;;;;;;;;;;10508400;28;20474;-85
2023/11/15 08:45:06;;;;;;;27.40;17.23;;;;;;;;;;10511054;28;20424;-84
2023/11/15 08:50:09;;;;;;;27.90;17.67;;;;;;;;;;10507001;28;20479;-85
2023/11/15 08:55:12;;;;;;;27.30;18.45;;;;;;;;;;10520712;28;20870;-85
2023/11/15 09:00:18;;;;;;;29.27;18.75;;;;;;;;;;10504936;28;20410;-85
2023/11/15 09:05:22;;;;;;;29.17;19.35;;;;;;;;;;10511493;28;20429;-85
2023/11/15 09:10:26;;;;;;;28.58;18.30;;;;;;;;;;10513418;28;20410;-85
2023/11/15 09:15:31;;;;;;;27.75;17.38;;;;;;;;;;10527488;22;20487;-85
2023/11/15 09:20:34;;;;;;;25.57;17.27;;;;;;;;;;10512487;28;20470;-84
2023/11/15 09:25:37;;;;;;;27.02;18.90;;;;;;;;;;10519224;28;20418;-84
2023/11/15 09:30:41;;;;;;;26.60;17.83;;;;;;;;;;10509925;28;20430;-85
2023/11/15 09:35:46;;;;;;;28.33;17.85;;;;;;;;;;10488575;28;21676;-85
2023/11/15 09:40:50;;;;;;;31.60;19.52;;;;;;;;;;10503843;28;20475;-84
2023/11/15 09:45:58;;;;;;;28.70;18.50;;;;;;;;;;10509833;28;20475;-85
2023/11/15 09:51:01;;;;;;;29.83;18.80;;;;;;;;;;10510369;28;20438;-85
2023/11/15 09:56:05;;;;;;;31.90;18.43;;;;;;;;;;10516561;28;20404;-84
2023/11/15 10:01:09;;;;;;;25.58;17.48;;;;;;;;;;10510869;28;20471;-84
2023/11/15 10:06:12;;;;;;;23.27;15.83;;;;;;;;;;10519804;28;20420;-85
2023/11/15 10:11:15;;;;;;;25.35;16.15;;;;;;;;;;10512632;28;20413;-84
2023/11/15 10:16:30;;;;;;;23.27;16.00;;;;;;;;;;10510926;28;20405;-84
2023/11/15 10:21:33;;;;;;;25.45;15.75;;;;;;;;;;10527777;28;20887;-85
2023/11/15 10:26:39;;;;;;;22.25;15.02;;;;;;;;;;10528006;28;20426;-84
2023/11/15 10:31:52;;;;;;;21.73;14.02;;;;;;;;;;10519733;28;20958;-85
2023/11/15 10:37:10;;;;;;;20.85;14.82;;;;;;;;;;10517962;28;20461;-85
2023/11/15 10:42:13;;;;;;;19.83;13.70;;;;;;;;;;10527885;28;20456;-86
2023/11/15 10:47:21;;;;;;;20.70;13.00;;;;;;;;;;10522130;28;20426;-86
2023/11/15 10:52:24;;;;;;;18.75;13.07;;;;;;;;;;10523823;28;20402;-85
2023/11/15 10:57:27;;;;;;;18.13;11.87;;;;;;;;;;10514002;28;20459;-85
2023/11/15 11:02:34;;;;;;;20.55;12.82;;;;;;;;;;10521497;28;20552;-85
2023/11/15 11:07:42;;;;;;;18.35;12.75;;;;;;;;;;10534523;28;20416;-85
2023/11/15 11:12:45;;;;;;;19.95;12.50;;;;;;;;;;10530795;28;20396;-86
2023/11/15 11:17:49;;;;;;;19.95;13.45;;;;;;;;;;10525117;28;20454;-85
2023/11/15 11:23:10;;;;;;;21.47;14.47;;;;;;;;;;10509892;28;20461;-86
2023/11/15 11:28:14;;;;;;;20.67;14.23;;;;;;;;;;10523882;28;20471;-85
2023/11/15 11:33:19;;;;;;;23.20;13.77;;;;;;;;;;10514790;28;20838;-86
2023/11/15 11:38:41;;;;;;;22.20;14.23;;;;;;;;;;10515881;28;20396;-85
2023/11/15 11:43:44;;;;;;;18.13;13.13;;;;;;;;;;10523957;28;20409;-84
2023/11/15 11:48:47;;;;;;;18.08;12.32;;;;;;;;;;10507250;28;20733;-85
2023/11/15 11:53:53;;;;;;;15.40;11.20;;;;;;;;;;10510622;28;20943;-84
2023/11/15 11:59:11;;;;;;;19.45;11.93;;;;;;;;;;10508162;28;20398;-84
2023/11/15 12:04:15;;;;;;;16.20;10.87;;;;;;;;;;10510074;28;21121;-85
2023/11/15 12:09:23;;;;;;;16.00;10.77;;;;;;;;;;10518105;28;20837;-84
2023/11/15 12:14:26;;;;;;;16.20;12.15;;;;;;;;;;10519399;28;20475;-81
2023/11/15 12:19:42;;;;;;;18.40;12.38;;;;;;;;;;10525266;28;20462;-84
2023/11/15 12:24:45;;;;;;;17.93;12.77;;;;;;;;;;10514585;28;20483;-84
2023/11/15 12:29:52;;;;;;;19.02;13.23;;;;;;;;;;10527558;28;20401;-85
2023/11/15 12:34:56;;;;;;;21.75;14.18;;;;;;;;;;10501770;28;20402;-84
2023/11/15 12:40:00;;;;;;;23.88;14.73;;;;;;;;;;10509097;28;20978;-83
2023/11/15 12:45:02;;;;;;;21.47;13.93;;;;;;;;;;10508156;28;20426;-85
2023/11/15 12:50:08;;;;;;;21.10;14.40;;;;;;;;;;10506124;28;20402;-84
2023/11/15 12:55:10;;;;;;;22.70;14.82;;;;;;;;;;10507786;28;20445;-84
2023/11/15 13:00:28;;;;;;;19.90;13.32;;;;;;;;;;10516614;28;20454;-84
2023/11/15 13:05:32;;;;;;;25.40;13.73;;;;;;;;;;10501684;28;20569;-84
2023/11/15 13:10:34;;;;;;;19.00;12.47;;;;;;;;;;10505374;28;20409;-85
2023/11/15 13:15:36;;;;;;;18.55;12.80;;;;;;;;;;10514113;28;20409;-84
2023/11/15 13:20:41;;;;;;;19.42;12.88;;;;;;;;;;10510500;28;20408;-84
2023/11/15 13:25:44;;;;;;;21.17;13.97;;;;;;;;;;10489471;28;20416;-84
2023/11/15 13:30:47;;;;;;;19.40;13.20;;;;;;;;;;10500059;28;20485;-85
2023/11/15 13:35:51;;;;;;;21.03;13.20;;;;;;;;;;10513095;28;20525;-84
2023/11/15 13:40:53;;;;;;;24.50;14.10;;;;;;;;;;10505625;28;20820;-85
2023/11/15 13:45:56;;;;;;;22.50;14.13;;;;;;;;;;10504002;28;20450;-85
2023/11/15 13:51:00;;;;;;;17.95;13.18;;;;;;;;;;10511878;28;20772;-84
2023/11/15 13:56:04;;;;;;;20.20;13.30;;;;;;;;;;10505678;28;20417;-84
2023/11/15 14:01:07;;;;;;;21.88;14.50;;;;;;;;;;10507109;28;20456;-84
2023/11/15 14:06:11;;;;;;;25.60;13.40;;;;;;;;;;10504125;28;20424;-84
2023/11/15 14:11:14;;;;;;;18.75;13.20;;;;;;;;;;10498814;28;20953;-85
2023/11/15 14:16:17;;;;;;;22.27;13.35;;;;;;;;;;10501501;28;20460;-85
2023/11/15 14:21:21;;;;;;;17.73;12.43;;;;;;;;;;10502270;28;20417;-83
2023/11/15 14:26:24;;;;;;;15.45;11.82;;;;;;;;;;10504777;28;20417;-85
2023/11/15 14:31:26;;;;;;;17.73;12.75;;;;;;;;;;10506089;28;20458;-85
2023/11/15 14:36:30;;;;;;;19.67;12.97;;;;;;;;;;10503228;28;20463;-85
2023/11/15 14:41:33;;;;;;;20.87;13.77;;;;;;;;;;10495534;28;20402;-84
2023/11/15 14:46:36;;;;;;;21.00;14.10;;;;;;;;;;10516378;28;20444;-84
2023/11/15 14:51:40;;;;;;;26.20;15.20;;;;;;;;;;10510891;28;20458;-85
2023/11/15 14:56:42;;;;;;;23.88;15.77;;;;;;;;;;10511110;28;20459;-84
2023/11/15 15:01:46;;;;;;;26.73;16.70;;;;;;;;;;10515920;28;20428;-84
2023/11/15 15:06:50;;;;;;;31.00;19.13;;;;;;;;;;10515393;28;20507;-84
2023/11/15 15:11:56;;;;;;;35.53;21.88;;;;;;;;;;10520601;28;20405;-83
2023/11/15 15:16:58;;;;;;;33.25;20.33;;;;;;;;;;10513394;28;20467;-83
2023/11/15 15:22:02;;;;;;;35.47;20.67;;;;;;;;;;10510877;28;20481;-83
2023/11/15 15:27:05;;;;;;;35.95;21.63;;;;;;;;;;10513854;28;20424;-84
2023/11/15 15:32:08;;;;;;;33.20;22.03;;;;;;;;;;10512926;28;20888;-84
2023/11/15 15:37:12;;;;;;;38.47;22.95;;;;;;;;;;10514120;28;20430;-85
2023/11/15 15:42:19;;;;;;;39.58;24.35;;;;;;;;;;10511310;28;20879;-83
2023/11/15 15:47:21;;;;;;;61.15;34.03;;;;;;;;;;10502861;28;20426;-85
2023/11/15 15:52:25;;;;;;;58.38;32.10;;;;;;;;;;10498665;28;20490;-85
2023/11/15 15:57:27;;;;;;;51.83;28.85;;;;;;;;;;10503024;28;20685;-85
2023/11/15 16:02:34;;;;;;;55.78;34.25;;;;;;;;;;10500003;28;20396;-86
2023/11/15 16:07:38;;;;;;;59.30;35.33;;;;;;;;;;10492512;28;20448;-84
2023/11/15 16:12:40;;;;;;;53.70;31.30;;;;;;;;;;10503703;28;20501;-83
2023/11/15 16:17:43;;;;;;;56.20;32.17;;;;;;;;;;10492414;28;20424;-83
2023/11/15 16:22:47;;;;;;;63.67;33.13;;;;;;;;;;10495601;28;20438;-84
2023/11/15 16:27:49;;;;;;;53.80;31.55;;;;;;;;;;10497323;28;20454;-85
2023/11/15 16:32:53;;;;;;;60.00;33.13;;;;;;;;;;10504280;28;20410;-83
2023/11/15 16:37:57;;;;;;;58.60;33.85;;;;;;;;;;10502788;28;20458;-83
2023/11/15 16:43:00;;;;;;;57.57;34.97;;;;;;;;;;10502528;28;20432;-83
2023/11/15 16:48:02;;;;;;;64.43;35.97;;;;;;;;;;10500687;28;20992;-84
2023/11/15 16:53:06;;;;;;;57.10;33.90;;;;;;;;;;10496454;28;20596;-82
2023/11/15 16:58:10;;;;;;;55.15;33.33;;;;;;;;;;10497234;28;20853;-83
2023/11/15 17:03:13;;;;;;;68.60;38.75;;;;;;;;;;10501766;28;20463;-83
2023/11/15 17:08:17;;;;;;;66.47;39.83;;;;;;;;;;10500959;28;21000;-82
2023/11/15 17:13:19;;;;;;;69.38;39.78;;;;;;;;;;10505074;28;20409;-82
2023/11/15 17:18:21;;;;;;;65.15;36.80;;;;;;;;;;10499614;28;20447;-83
2023/11/15 17:23:25;;;;;;;63.00;36.25;;;;;;;;;;10499268;28;20567;-81
2023/11/15 17:28:28;;;;;;;70.90;38.00;;;;;;;;;;10497327;28;20446;-83
2023/11/15 17:33:32;;;;;;;64.90;37.67;;;;;;;;;;10502234;28;20450;-82
2023/11/15 17:38:36;;;;;;;66.20;37.35;;;;;;;;;;10498427;28;20849;-82
2023/11/15 17:43:39;;;;;;;66.17;38.57;;;;;;;;;;10495909;28;20547;-82
2023/11/15 17:48:41;;;;;;;68.23;38.40;;;;;;;;;;10490927;28;21434;-83
2023/11/15 17:53:45;;;;;;;63.03;38.50;;;;;;;;;;10498150;28;21047;-85
2023/11/15 17:58:48;;;;;;;61.28;36.45;;;;;;;;;;10508163;28;20445;-83
2023/11/15 18:03:50;;;;;;;67.57;38.63;;;;;;;;;;10497521;28;20408;-83
2023/11/15 18:08:54;;;;;;;64.03;37.60;;;;;;;;;;10497696;28;20756;-84
2023/11/15 18:13:56;;;;;;;65.43;37.78;;;;;;;;;;10500384;28;20410;-85
2023/11/15 18:19:07;;;;;;;69.68;39.85;;;;;;;;;;10510710;28;20454;-84
2023/11/15 18:24:11;;;;;;;71.07;40.00;;;;;;;;;;10519555;28;20424;-84
2023/11/15 18:29:14;;;;;;;76.90;41.55;;;;;;;;;;10507152;28;20482;-82
2023/11/15 18:34:41;;;;;;;70.13;38.85;;;;;;;;;;10512244;28;20498;-84
2023/11/15 18:39:44;;;;;;;69.03;38.42;;;;;;;;;;10511139;28;20429;-84
2023/11/15 18:44:52;;;;;;;65.40;38.20;;;;;;;;;;10511079;28;20443;-83
2023/11/15 18:49:55;;;;;;;62.42;37.05;;;;;;;;;;10503579;28;21076;-84
2023/11/15 18:54:58;;;;;;;66.05;39.63;;;;;;;;;;10505511;28;20442;-84
2023/11/15 19:00:01;;;;;;;61.22;34.90;;;;;;;;;;10490176;28;20433;-84
2023/11/15 19:05:05;;;;;;;63.88;37.80;;;;;;;;;;10501708;28;20477;-84
2023/11/15 19:10:10;;;;;;;61.10;36.50;;;;;;;;;;10506990;28;21078;-84
2023/11/15 19:15:12;;;;;;;63.85;37.70;;;;;;;;;;10505356;28;20477;-85
2023/11/15 19:20:17;;;;;;;68.20;38.47;;;;;;;;;;10509996;28;20498;-84
2023/11/15 19:25:22;;;;;;;67.55;38.70;;;;;;;;;;10500045;28;20480;-83
2023/11/15 19:30:24;;;;;;;64.32;37.05;;;;;;;;;;10502602;28;20493;-83
2023/11/15 19:35:28;;;;;;;70.00;39.90;;;;;;;;;;10502887;28;20486;-84
2023/11/15 19:40:34;;;;;;;69.18;40.28;;;;;;;;;;10509366;28;20436;-83
2023/11/15 19:45:37;;;;;;;67.35;38.00;;;;;;;;;;10512433;28;20912;-82
2023/11/15 19:50:39;;;;;;;64.88;37.47;;;;;;;;;;10509160;28;20445;-83
2023/11/15 19:55:43;;;;;;;67.85;38.92;;;;;;;;;;10503179;28;20398;-83
2023/11/15 20:00:47;;;;;;;69.78;41.13;;;;;;;;;;10502439;28;20470;-83
2023/11/15 20:05:49;;;;;;;75.40;42.03;;;;;;;;;;10497592;28;20769;-84
2023/11/15 20:10:54;;;;;;;74.22;42.10;;;;;;;;;;10500641;28;20410;-82
2023/11/15 20:15:56;;;;;;;72.57;40.85;;;;;;;;;;10494192;28;20501;-82
2023/11/15 20:21:05;;;;;;;74.75;43.85;;;;;;;;;;10511101;28;20516;-83
2023/11/15 20:26:11;;;;;;;70.45;40.60;;;;;;;;;;10505210;28;20516;-84
2023/11/15 20:31:13;;;;;;;72.10;42.42;;;;;;;;;;10497654;28;20909;-82
2023/11/15 20:36:16;;;;;;;71.28;41.40;;;;;;;;;;10500820;28;20445;-83
2023/11/15 20:41:19;;;;;;;70.95;39.67;;;;;;;;;;10505068;28;20442;-83
2023/11/15 20:46:22;;;;;;;71.55;41.10;;;;;;;;;;10502596;28;20475;-83
2023/11/15 20:51:24;;;;;;;72.75;41.95;;;;;;;;;;10502027;28;20433;-83
2023/11/15 20:56:28;;;;;;;69.25;40.35;;;;;;;;;;10499533;28;20509;-83
2023/11/15 21:01:34;;;;;;;71.40;41.85;;;;;;;;;;10490285;28;21038;-83
2023/11/15 21:06:38;;;;;;;74.55;42.33;;;;;;;;;;10504173;28;20489;-83
2023/11/15 21:11:43;;;;;;;73.05;42.83;;;;;;;;;;10510527;28;20435;-83
2023/11/15 21:16:45;;;;;;;74.67;42.93;;;;;;;;;;10507393;28;21497;-83
2023/11/15 21:21:47;;;;;;;71.47;41.78;;;;;;;;;;10489651;28;20515;-82
2023/11/15 21:26:52;;;;;;;69.28;41.75;;;;;;;;;;10515910;28;20489;-84
2023/11/15 21:31:55;;;;;;;72.28;42.05;;;;;;;;;;10495417;28;20442;-84
2023/11/15 21:36:58;;;;;;;61.33;37.50;;;;;;;;;;10494366;28;20497;-84
2023/11/15 21:42:03;;;;;;;63.60;36.88;;;;;;;;;;10488400;28;20432;-84
2023/11/15 21:47:05;;;;;;;61.97;36.58;;;;;;;;;;10496007;28;20488;-85
2023/11/15 21:52:07;;;;;;;76.77;39.87;;;;;;;;;;10476368;28;20921;-83
2023/11/15 21:57:11;;;;;;;63.77;36.67;;;;;;;;;;10502650;28;21110;-83
2023/11/15 22:02:14;;;;;;;61.25;35.05;;;;;;;;;;10508827;28;20823;-82
2023/11/15 22:07:17;;;;;;;58.85;33.80;;;;;;;;;;10484709;28;20485;-80
2023/11/15 22:12:20;;;;;;;57.00;34.63;;;;;;;;;;10501832;28;20434;-80
2023/11/15 22:17:23;;;;;;;59.33;34.27;;;;;;;;;;10504188;28;20492;-82
2023/11/15 22:22:25;;;;;;;60.30;33.88;;;;;;;;;;10505355;28;21845;-84
2023/11/15 22:27:29;;;;;;;56.17;33.72;;;;;;;;;;10505938;28;20450;-84
2023/11/15 22:32:33;;;;;;;62.50;34.95;;;;;;;;;;10507146;28;20503;-83
2023/11/15 22:37:35;;;;;;;60.67;34.20;;;;;;;;;;10501027;28;20445;-83
2023/11/15 22:42:39;;;;;;;60.75;35.67;;;;;;;;;;10501375;28;20563;-81
2023/11/15 22:47:41;;;;;;;60.15;36.10;;;;;;;;;;10506556;28;20937;-83
2023/11/15 22:52:44;;;;;;;60.42;35.55;;;;;;;;;;10507284;28;21093;-83
2023/11/15 22:57:48;;;;;;;61.60;33.95;;;;;;;;;;10520435;28;20398;-82
2023/11/15 23:02:51;;;;;;;61.88;34.42;;;;;;;;;;10507742;28;20776;-83
2023/11/15 23:07:54;;;;;;;69.30;36.65;;;;;;;;;;10515388;28;20491;-83
2023/11/15 23:12:58;;;;;;;63.73;35.70;;;;;;;;;;10512096;28;20969;-82
2023/11/15 23:18:01;;;;;;;50.78;33.20;;;;;;;;;;10504738;28;20410;-83
2023/11/15 23:23:04;;;;;;;56.67;33.72;;;;;;;;;;10505585;28;21047;-82
2023/11/15 23:28:08;;;;;;;61.58;34.33;;;;;;;;;;10507939;28;20479;-83
2023/11/15 23:33:11;;;;;;;55.03;31.73;;;;;;;;;;10516471;28;20497;-82
2023/11/15 23:38:14;;;;;;;56.78;31.95;;;;;;;;;;10510604;28;20448;-83
2023/11/15 23:43:18;;;;;;;53.78;31.30;;;;;;;;;;10511091;28;20463;-82
2023/11/15 23:48:21;;;;;;;50.33;30.13;;;;;;;;;;10508453;28;20456;-83
2023/11/15 23:53:23;;;;;;;49.28;29.38;;;;;;;;;;10513141;28;20434;-84
2023/11/15 23:58:27;;;;;;;47.58;28.63;;;;;;;;;;10508677;28;20406;-82
